Time;durP1;ratioP1;P1;durP2;ratioP2;P2;SDS_P1;SDS_P2;PMS_P1;PMS_P2;Temp;Humidity;BMP_temperature;BMP_pressure;BME280_temperature;BME280_humidity;BME280_pressure;Samples;Min_cycle;Max_cycle;Signal;HPM_P1;HPM_P2
2023/06/25 00:02:10;;;;;;;9.43;6.30;;;;;;;-143.48;81.79;118439.88;5035627;28;20026;-72
2023/06/25 00:04:35;;;;;;;9.77;6.43;;;;;;;-143.48;81.25;118439.88;5017965;28;20025;-72
2023/06/25 00:07:01;;;;;;;13.18;7.32;;;;;;;-143.48;80.43;118439.88;5035559;28;20120;-72
2023/06/25 00:09:26;;;;;;;12.15;7.18;;;;;;;-143.48;81.63;118439.88;5017668;28;20076;-73
2023/06/25 00:11:52;;;;;;;9.57;6.60;;;;;;;-143.48;82.34;118439.88;5017524;28;20075;-72
2023/06/25 00:14:17;;;;;;;20.63;7.55;;;;;;;-143.48;81.86;118439.88;5017825;28;20021;-73
2023/06/25 00:16:42;;;;;;;12.18;7.15;;;;;;;-143.48;82.87;118439.88;5035616;28;20029;-73
2023/06/25 00:19:08;;;;;;;13.82;7.78;;;;;;;-143.48;82.17;118439.88;5035178;28;20449;-72
2023/06/25 00:21:34;;;;;;;12.18;7.78;;;;;;;-143.48;83.22;118439.88;5035279;28;20033;-73
2023/06/25 00:23:59;;;;;;;13.65;7.82;;;;;;;-143.48;82.04;118439.88;5016990;28;20025;-72
2023/06/25 00:26:24;;;;;;;15.80;7.72;;;;;;;-143.48;81.86;118439.88;5034767;28;20029;-73
2023/06/25 00:28:50;;;;;;;10.75;7.28;;;;;;;-143.48;82.80;118439.88;5017269;28;20036;-73
2023/06/25 00:31:15;;;;;;;13.05;7.28;;;;;;;-143.48;82.67;118439.88;5016887;28;20445;-73
2023/06/25 00:33:42;;;;;;;12.68;7.60;;;;;;;-143.48;82.67;118439.88;5017570;28;20361;-73
2023/06/25 00:36:07;;;;;;;15.38;7.80;;;;;;;-143.48;81.90;118439.88;5017453;28;20053;-72
2023/06/25 00:38:34;;;;;;;11.10;7.75;;;;;;;-143.48;81.89;118439.88;5016808;28;20057;-72
2023/06/25 00:41:00;;;;;;;12.40;7.53;;;;;;;-143.48;81.21;118439.88;5034623;28;20033;-72
2023/06/25 00:43:25;;;;;;;11.82;7.80;;;;;;;-143.48;82.35;118439.88;5016721;28;20030;-72
2023/06/25 00:45:51;;;;;;;15.43;7.25;;;;;;;-143.48;82.70;118439.88;5034383;28;20477;-72
2023/06/25 00:48:16;;;;;;;12.07;7.57;;;;;;;-143.48;83.22;118439.88;5035008;28;20075;-73
2023/06/25 00:50:42;;;;;;;11.35;7.60;;;;;;;-143.48;82.13;118439.88;5034242;28;20362;-72
2023/06/25 00:53:09;;;;;;;13.07;7.88;;;;;;;-143.48;82.66;118439.88;5034761;28;20350;-73
2023/06/25 00:55:35;;;;;;;10.50;7.05;;;;;;;-143.48;84.06;118439.88;5034496;28;20025;-72
2023/06/25 00:58:00;;;;;;;12.68;7.78;;;;;;;-143.48;83.03;118439.88;5016339;28;20029;-72
2023/06/25 01:00:28;;;;;;;12.80;7.18;;;;;;;-143.48;83.72;118439.88;5016433;28;20028;-73
2023/06/25 01:03:12;;;;;;;12.63;7.40;;;;;;;-143.48;82.90;118439.88;5016698;28;20082;-72
2023/06/25 01:05:44;;;;;;;13.93;6.95;;;;;;;-143.48;82.47;118439.88;5034151;28;20542;-72
2023/06/25 01:08:11;;;;;;;14.90;7.25;;;;;;;-143.48;81.99;118439.88;5034346;28;20026;-72
2023/06/25 01:10:37;;;;;;;10.70;7.22;;;;;;;-143.48;81.92;118439.88;5033832;28;20079;-72
2023/06/25 01:13:02;;;;;;;13.63;7.18;;;;;;;-143.48;81.56;118439.88;5034071;28;20070;-72
2023/06/25 01:15:28;;;;;;;10.43;6.97;;;;;;;-143.48;81.26;118439.88;5034401;28;20029;-72
2023/06/25 01:17:53;;;;;;;10.57;6.68;;;;;;;-143.48;80.58;118439.88;5016491;28;20057;-72
2023/06/25 01:20:19;;;;;;;11.00;7.50;;;;;;;-143.48;80.49;118439.88;5034473;28;20053;-72
2023/06/25 01:22:46;;;;;;;12.13;7.28;;;;;;;-143.48;81.40;118439.88;5033712;28;20037;-72
2023/06/25 01:25:11;;;;;;;13.02;7.03;;;;;;;-143.48;80.63;118439.88;5016176;28;20049;-72
2023/06/25 01:27:37;;;;;;;11.25;6.72;;;;;;;-143.48;81.12;118439.88;5016145;28;20167;-73
2023/06/25 01:30:05;;;;;;;11.25;7.13;;;;;;;-143.48;82.21;118439.88;5015905;28;20543;-72
2023/06/25 01:32:31;;;;;;;11.45;7.00;;;;;;;-143.48;81.12;118439.88;5034101;28;20033;-72
2023/06/25 01:34:56;;;;;;;10.07;6.63;;;;;;;-143.48;81.00;118439.88;5034082;28;20030;-72
2023/06/25 01:37:22;;;;;;;12.65;7.00;;;;;;;-143.48;81.35;118439.88;5033791;28;20026;-72
2023/06/25 01:39:54;;;;;;;11.93;7.20;;;;;;;-143.48;81.65;118439.88;5015914;28;20103;-72
2023/06/25 01:42:19;;;;;;;13.30;7.40;;;;;;;-143.48;81.10;118439.88;5033969;28;20029;-72
2023/06/25 01:44:45;;;;;;;13.90;7.35;;;;;;;-143.48;81.55;118439.88;5015892;28;20032;-72
2023/06/25 01:47:10;;;;;;;13.95;6.65;;;;;;;-143.48;81.38;118439.88;5033390;28;20033;-72
2023/06/25 01:49:35;;;;;;;11.13;6.75;;;;;;;-143.48;81.88;118439.88;5033842;28;20029;-72
2023/06/25 01:52:02;;;;;;;10.00;6.90;;;;;;;-143.48;81.86;118439.88;5033668;28;20064;-72
2023/06/25 01:54:28;;;;;;;13.73;7.25;;;;;;;-143.48;81.80;118439.88;5015558;28;20021;-72
2023/06/25 01:56:54;;;;;;;11.40;6.70;;;;;;;-143.48;82.13;118439.88;5033561;28;20025;-72
2023/06/25 01:59:19;;;;;;;10.45;7.10;;;;;;;-143.48;82.31;118439.88;5015451;28;20090;-72
2023/06/25 02:01:45;;;;;;;11.13;7.00;;;;;;;-143.48;83.29;118439.88;5015032;28;20021;-72
2023/06/25 02:04:10;;;;;;;10.57;7.18;;;;;;;-143.48;83.03;118439.88;5033535;28;20053;-72
2023/06/25 02:06:35;;;;;;;14.15;6.70;;;;;;;-143.48;82.74;118439.88;5015378;28;20468;-72
2023/06/25 02:09:01;;;;;;;12.60;7.28;;;;;;;-143.48;84.54;118439.88;5015453;28;20029;-72
2023/06/25 02:11:26;;;;;;;11.30;7.47;;;;;;;-143.48;84.53;118439.88;5015327;28;20145;-72
2023/06/25 02:13:52;;;;;;;12.20;7.65;;;;;;;-143.48;83.69;118439.88;5015311;28;20048;-72
2023/06/25 02:16:18;;;;;;;13.07;7.30;;;;;;;-143.48;83.37;118439.88;5033560;28;20087;-72
2023/06/25 02:18:44;;;;;;;12.98;8.02;;;;;;;-143.48;82.93;118439.88;5032987;28;20029;-72
2023/06/25 02:21:10;;;;;;;10.30;6.80;;;;;;;-143.48;83.61;118439.88;5033018;28;20385;-72
2023/06/25 02:23:35;;;;;;;13.23;7.55;;;;;;;-143.48;84.68;118439.88;5032832;28;20029;-72
2023/06/25 02:26:00;;;;;;;10.80;7.45;;;;;;;-143.48;84.56;118439.88;5032889;28;20037;-72
2023/06/25 02:28:26;;;;;;;12.88;7.72;;;;;;;-143.48;85.87;118439.88;5015289;28;20026;-72
2023/06/25 02:30:51;;;;;;;12.02;8.02;;;;;;;-143.48;86.09;118439.88;5014947;28;20437;-72
2023/06/25 02:33:17;;;;;;;11.63;7.75;;;;;;;-143.48;85.06;118439.88;5032847;28;20072;-72
2023/06/25 02:35:43;;;;;;;11.98;7.80;;;;;;;-143.48;85.15;118439.88;5032793;28;20036;-72
2023/06/25 02:38:08;;;;;;;17.58;8.10;;;;;;;-143.48;84.84;118439.88;5033134;28;20079;-72
2023/06/25 02:40:35;;;;;;;15.65;8.00;;;;;;;-143.48;85.75;118439.88;5032759;28;20469;-72
2023/06/25 02:43:01;;;;;;;11.38;7.78;;;;;;;-143.48;85.68;118439.88;5032613;28;20113;-72
2023/06/25 02:45:26;;;;;;;14.48;7.47;;;;;;;-143.48;86.70;118439.88;5015580;28;20496;-71
2023/06/25 02:47:51;;;;;;;16.55;8.63;;;;;;;-143.48;87.65;118439.88;5015088;28;20091;-72
2023/06/25 02:50:17;;;;;;;12.13;8.23;;;;;;;-143.48;86.95;118439.88;5014904;28;20029;-72
2023/06/25 02:52:42;;;;;;;14.48;8.13;;;;;;;-143.48;86.61;118439.88;5032590;28;20436;-72
2023/06/25 02:55:08;;;;;;;12.48;8.10;;;;;;;-143.48;86.21;118439.88;5014984;28;20036;-72
2023/06/25 02:57:34;;;;;;;12.63;8.10;;;;;;;-143.48;86.81;118439.88;5014758;28;20061;-72
2023/06/25 03:00:00;;;;;;;12.18;8.40;;;;;;;-143.48;87.24;118439.88;5033334;28;20036;-72
2023/06/25 03:02:26;;;;;;;13.80;8.85;;;;;;;-143.48;87.05;118439.88;5015232;28;20029;-72
2023/06/25 03:04:51;;;;;;;20.88;8.60;;;;;;;-143.48;88.05;118439.88;5015238;28;20025;-72
2023/06/25 03:07:16;;;;;;;18.60;8.80;;;;;;;-143.48;87.35;118439.88;5033131;28;20127;-72
2023/06/25 03:09:43;;;;;;;13.55;8.63;;;;;;;-143.48;87.68;118439.88;5014688;28;20026;-72
2023/06/25 03:12:09;;;;;;;11.82;8.13;;;;;;;-143.48;88.28;118439.88;5014870;28;20028;-72
2023/06/25 03:14:36;;;;;;;14.88;8.80;;;;;;;-143.48;88.13;118439.88;5033863;28;20033;-72
2023/06/25 03:17:03;;;;;;;14.32;8.60;;;;;;;-143.48;87.58;118439.88;5018200;28;20029;-72
2023/06/25 03:19:29;;;;;;;12.43;8.35;;;;;;;-143.48;86.84;118439.88;5035209;28;20029;-72
2023/06/25 03:21:54;;;;;;;15.52;9.00;;;;;;;-143.48;86.86;118439.88;5018079;28;20029;-72
2023/06/25 03:24:19;;;;;;;13.80;8.40;;;;;;;-143.48;87.57;118439.88;5035848;28;20474;-72
2023/06/25 03:26:45;;;;;;;13.60;8.60;;;;;;;-143.48;87.42;118439.88;5036783;28;20091;-72
2023/06/25 03:29:10;;;;;;;16.30;8.93;;;;;;;-143.48;86.93;118439.88;5036057;28;20028;-72
2023/06/25 03:31:35;;;;;;;15.02;9.30;;;;;;;-143.48;87.88;118439.88;5035655;28;20068;-72
2023/06/25 03:34:01;;;;;;;14.45;8.68;;;;;;;-143.48;88.72;118439.88;5018631;28;20099;-73
2023/06/25 03:36:26;;;;;;;15.73;9.10;;;;;;;-143.48;89.83;118439.88;5036046;28;20468;-72
2023/06/25 03:38:51;;;;;;;16.10;9.23;;;;;;;-143.48;90.16;118439.88;5017898;28;20032;-73
2023/06/25 03:41:17;;;;;;;13.77;8.75;;;;;;;-143.48;89.42;118439.88;5036241;28;20028;-73
2023/06/25 03:43:42;;;;;;;16.67;9.07;;;;;;;-143.48;88.04;118439.88;5018084;28;20032;-73
2023/06/25 03:46:07;;;;;;;14.13;9.32;;;;;;;-143.48;88.33;118439.88;5035863;28;20029;-73
2023/06/25 03:48:33;;;;;;;17.15;9.45;;;;;;;-143.48;89.38;118439.88;5035547;28;20057;-73
2023/06/25 03:50:59;;;;;;;15.07;9.10;;;;;;;-143.48;88.53;118439.88;5035881;28;20045;-72
2023/06/25 03:53:25;;;;;;;14.30;9.45;;;;;;;-143.48;88.53;118439.88;5035912;28;20029;-73
2023/06/25 03:55:51;;;;;;;16.55;9.13;;;;;;;-143.48;86.58;118439.88;5035598;28;20496;-73
2023/06/25 03:58:16;;;;;;;15.50;9.27;;;;;;;-143.48;86.66;118439.88;5017884;28;20041;-73
2023/06/25 04:00:42;;;;;;;16.75;9.98;;;;;;;-143.48;86.43;118439.88;5035239;28;20392;-72
2023/06/25 04:03:07;;;;;;;13.45;8.82;;;;;;;-143.48;86.14;118439.88;5018112;28;20115;-73
2023/06/25 04:05:32;;;;;;;15.02;9.30;;;;;;;-143.48;86.33;118439.88;5017443;28;20026;-72
2023/06/25 04:07:58;;;;;;;14.60;9.45;;;;;;;-143.48;86.15;118439.88;5017832;28;20025;-73
2023/06/25 04:10:23;;;;;;;16.52;9.35;;;;;;;-143.48;86.77;118439.88;5017827;28;20033;-73
2023/06/25 04:12:48;;;;;;;14.60;9.73;;;;;;;-143.48;86.53;118439.88;5035064;28;20025;-72
2023/06/25 04:15:14;;;;;;;13.60;9.52;;;;;;;-143.48;85.86;118439.88;5017251;28;20036;-73
2023/06/25 04:17:40;;;;;;;18.63;9.95;;;;;;;-143.48;87.73;118439.88;5017374;28;20021;-72
2023/06/25 04:20:06;;;;;;;13.70;9.77;;;;;;;-143.48;87.16;118439.88;5034969;28;20033;-73
2023/06/25 04:22:32;;;;;;;18.58;9.52;;;;;;;-143.48;87.60;118439.88;5035262;28;20025;-73
2023/06/25 04:24:57;;;;;;;15.80;10.23;;;;;;;-143.48;87.74;118439.88;5034956;28;20029;-73
2023/06/25 04:27:22;;;;;;;19.05;10.50;;;;;;;-143.48;86.42;118439.88;5035499;28;20059;-73
2023/06/25 04:29:48;;;;;;;15.60;9.23;;;;;;;-143.48;86.85;118439.88;5016856;28;20087;-73
2023/06/25 04:32:13;;;;;;;17.80;9.65;;;;;;;-143.48;86.92;118439.88;5034781;28;20022;-73
2023/06/25 04:34:38;;;;;;;18.35;10.35;;;;;;;-143.48;87.01;118439.88;5016894;28;20429;-73
2023/06/25 04:37:04;;;;;;;17.48;9.95;;;;;;;-143.48;87.91;118439.88;5034962;28;20029;-73
2023/06/25 04:39:29;;;;;;;16.58;9.95;;;;;;;-143.48;89.78;118439.88;5016863;28;20033;-73
2023/06/25 04:41:55;;;;;;;16.35;10.90;;;;;;;-143.48;91.83;118439.88;5016941;28;20080;-73
2023/06/25 04:44:20;;;;;;;18.13;10.43;;;;;;;-143.48;89.67;118439.88;5016521;28;20025;-73
2023/06/25 04:46:46;;;;;;;15.73;10.52;;;;;;;-143.48;88.67;118439.88;5034261;28;20084;-73
2023/06/25 04:49:11;;;;;;;17.10;10.75;;;;;;;-143.48;88.48;118439.88;5034447;28;20100;-72
2023/06/25 04:51:36;;;;;;;17.73;10.15;;;;;;;-143.48;87.49;118439.88;5016439;28;20025;-73
2023/06/25 04:54:02;;;;;;;21.23;10.43;;;;;;;-143.48;87.13;118439.88;5016970;28;20024;-73
2023/06/25 04:56:27;;;;;;;16.25;9.90;;;;;;;-143.48;88.01;118439.88;5034213;28;20044;-73
2023/06/25 04:58:53;;;;;;;19.45;10.70;;;;;;;-143.48;87.60;118439.88;5016527;28;20028;-73
2023/06/25 05:01:18;;;;;;;20.63;11.07;;;;;;;-143.48;88.09;118439.88;5016498;28;20024;-73
2023/06/25 05:03:43;;;;;;;16.75;10.55;;;;;;;-143.48;87.67;118439.88;5033948;28;20096;-73
2023/06/25 05:06:09;;;;;;;13.95;9.90;;;;;;;-143.48;87.26;118439.88;5034455;28;20029;-73
2023/06/25 05:08:34;;;;;;;17.10;10.27;;;;;;;-143.48;86.04;118439.88;5016213;28;20025;-73
2023/06/25 05:10:59;;;;;;;15.68;10.50;;;;;;;-143.48;86.74;118439.88;5016106;28;20108;-73
2023/06/25 05:13:25;;;;;;;15.15;10.30;;;;;;;-143.48;86.27;118439.88;5034046;28;20373;-73
2023/06/25 05:15:50;;;;;;;14.85;10.55;;;;;;;-143.48;81.89;118439.88;5033781;28;20366;-73
2023/06/25 05:18:17;;;;;;;16.10;10.40;;;;;;;-143.48;81.65;118439.88;5033894;28;20489;-73
2023/06/25 05:20:42;;;;;;;20.40;10.88;;;;;;;-143.48;83.43;118439.88;5016123;28;20022;-74
2023/06/25 05:23:09;;;;;;;17.15;10.48;;;;;;;-143.48;84.29;118439.88;5033958;28;20040;-72
2023/06/25 05:25:35;;;;;;;15.75;10.32;;;;;;;-143.48;82.96;118439.88;5033975;28;20029;-72
2023/06/25 05:28:01;;;;;;;16.08;11.07;;;;;;;-143.48;82.94;118439.88;5016521;28;20099;-72
2023/06/25 05:30:36;;;;;;;14.02;9.80;;;;;;;-143.48;77.65;118439.88;5033447;28;20049;-72
2023/06/25 05:33:02;;;;;;;13.35;9.68;;;;;;;-143.48;68.88;118439.88;5015874;28;20491;-72
2023/06/25 05:35:28;;;;;;;16.85;9.70;;;;;;;-143.48;59.18;118439.88;5034203;28;20100;-72
2023/06/25 05:37:54;;;;;;;17.65;9.27;;;;;;;-143.48;52.30;118439.88;5015423;28;20029;-72
2023/06/25 05:40:20;;;;;;;11.88;9.38;;;;;;;-143.48;51.36;118439.88;5034142;28;20026;-73
2023/06/25 05:42:45;;;;;;;12.57;8.88;;;;;;;-143.48;51.20;118439.88;5033320;28;20022;-73
2023/06/25 05:45:11;;;;;;;13.38;8.63;;;;;;;-143.48;51.04;118439.88;5015968;28;20025;-73
2023/06/25 05:47:36;;;;;;;12.18;8.68;;;;;;;-143.48;51.91;118439.88;5016348;28;20032;-73
2023/06/25 05:50:03;;;;;;;9.63;7.90;;;;;;;-143.48;47.86;118439.88;5033580;28;20029;-73
2023/06/25 05:52:28;;;;;;;11.52;7.85;;;;;;;-143.48;46.05;118439.88;5015402;28;20484;-73
2023/06/25 05:54:53;;;;;;;10.13;7.72;;;;;;;-143.48;45.22;118439.88;5033689;28;20025;-73
2023/06/25 05:57:19;;;;;;;12.88;8.10;;;;;;;-143.48;44.60;118439.88;5015310;28;20485;-73
2023/06/25 05:59:44;;;;;;;10.57;7.63;;;;;;;-143.48;47.00;118439.88;5033769;28;20122;-74
2023/06/25 06:02:09;;;;;;;11.27;8.10;;;;;;;-143.48;44.16;118439.88;5033609;28;20022;-74
2023/06/25 06:04:35;;;;;;;9.60;7.97;;;;;;;-143.48;44.15;118439.88;5015543;28;20120;-74
2023/06/25 06:07:00;;;;;;;13.98;8.35;;;;;;;-143.48;44.10;118439.88;5032891;28;20025;-73
2023/06/25 06:09:26;;;;;;;12.65;8.38;;;;;;;-143.48;44.47;118439.88;5015267;28;20071;-73
2023/06/25 06:11:51;;;;;;;13.55;8.00;;;;;;;-143.48;44.65;118439.88;5015218;28;20132;-74
2023/06/25 06:14:16;;;;;;;11.40;7.90;;;;;;;-143.48;44.39;118439.88;5015595;28;20025;-73
2023/06/25 06:16:42;;;;;;;10.52;8.30;;;;;;;-143.48;42.54;118439.88;5015763;28;20022;-74
2023/06/25 06:19:07;;;;;;;12.85;8.18;;;;;;;-143.48;42.31;118439.88;5015028;28;20025;-73
2023/06/25 06:21:33;;;;;;;14.18;8.55;;;;;;;-143.48;41.87;118439.88;5033653;28;20048;-73
2023/06/25 06:23:58;;;;;;;16.67;8.27;;;;;;;-143.48;44.53;118439.88;5015678;28;20025;-73
2023/06/25 06:26:24;;;;;;;10.90;8.25;;;;;;;-143.48;43.24;118439.88;5033279;28;20057;-73
2023/06/25 06:28:49;;;;;;;12.05;7.82;;;;;;;-143.48;44.34;118439.88;5033045;28;20112;-74
2023/06/25 06:31:14;;;;;;;13.18;8.27;;;;;;;-143.48;41.99;118439.88;5014985;28;20061;-73
2023/06/25 06:33:40;;;;;;;11.57;7.95;;;;;;;-143.48;42.21;118439.88;5033103;28;20163;-74
2023/06/25 06:36:05;;;;;;;10.77;7.63;;;;;;;-143.48;41.38;118439.88;5033030;28;20032;-73
2023/06/25 06:38:30;;;;;;;12.65;8.43;;;;;;;-143.48;43.73;118439.88;5015315;28;20063;-73
2023/06/25 06:40:57;;;;;;;15.73;8.30;;;;;;;-143.48;44.52;118439.88;5014932;28;20025;-73
2023/06/25 06:43:23;;;;;;;12.80;7.90;;;;;;;-143.48;45.84;118439.88;5015265;28;20477;-73
2023/06/25 06:45:48;;;;;;;11.23;8.43;;;;;;;-143.48;47.93;118439.88;5015304;28;20028;-73
2023/06/25 06:48:13;;;;;;;10.85;7.53;;;;;;;-143.48;45.80;118439.88;5034190;28;20570;-73
2023/06/25 06:50:39;;;;;;;14.52;7.75;;;;;;;-143.48;45.38;118439.88;5019163;28;20494;-73
2023/06/25 06:53:04;;;;;;;10.63;7.65;;;;;;;-143.48;44.54;118439.88;5036454;28;20484;-73
2023/06/25 06:55:32;;;;;;;10.48;7.07;;;;;;;-143.48;44.53;118439.88;5019372;28;20048;-73
2023/06/25 06:57:57;;;;;;;12.32;7.78;;;;;;;-143.48;44.53;118439.88;5019371;28;20033;-73
2023/06/25 07:00:22;;;;;;;10.52;7.43;;;;;;;-143.48;44.37;118439.88;5036778;28;20025;-73
2023/06/25 07:02:48;;;;;;;12.50;7.30;;;;;;;-143.48;44.32;118439.88;5036754;28;20017;-75
2023/06/25 07:05:13;;;;;;;12.50;6.93;;;;;;;-143.48;42.49;118439.88;5036733;28;20036;-73
2023/06/25 07:07:40;;;;;;;13.18;7.38;;;;;;;-143.48;42.73;118439.88;5018805;28;20026;-73
2023/06/25 07:10:06;;;;;;;10.02;7.18;;;;;;;-143.48;41.95;118439.88;5018698;28;20025;-73
2023/06/25 07:12:32;;;;;;;11.30;7.47;;;;;;;-143.48;43.17;118439.88;5018812;28;20111;-74
2023/06/25 07:14:57;;;;;;;11.60;6.55;;;;;;;-143.48;43.96;118439.88;5018693;28;20048;-74
2023/06/25 07:17:24;;;;;;;10.75;6.93;;;;;;;-143.48;42.04;118439.88;5036528;28;20036;-74
2023/06/25 07:19:49;;;;;;;11.07;6.97;;;;;;;-143.48;40.93;118439.88;5036347;28;20132;-73
2023/06/25 07:22:15;;;;;;;11.15;7.30;;;;;;;-143.48;41.12;118439.88;5018440;28;20056;-73
2023/06/25 07:24:40;;;;;;;9.75;6.82;;;;;;;-143.48;39.26;118439.88;5018396;28;20087;-75
2023/06/25 07:27:06;;;;;;;9.88;6.70;;;;;;;-143.48;39.36;118439.88;5018580;28;20453;-73
2023/06/25 07:29:31;;;;;;;10.98;6.22;;;;;;;-143.48;39.96;118439.88;5018277;28;20558;-73
2023/06/25 07:31:56;;;;;;;12.40;6.10;;;;;;;-143.48;39.05;118439.88;5036122;28;20044;-74
2023/06/25 07:34:22;;;;;;;9.80;6.10;;;;;;;-143.48;38.35;118439.88;5017992;28;20032;-73
2023/06/25 07:36:48;;;;;;;11.77;5.70;;;;;;;-143.48;38.77;118439.88;5036143;28;20020;-73
2023/06/25 07:39:24;;;;;;;9.85;5.47;;;;;;;-143.48;37.26;118439.88;5035995;28;20025;-74
2023/06/25 07:41:49;;;;;;;9.40;5.57;;;;;;;-143.48;38.06;118439.88;5036188;28;20434;-73
2023/06/25 07:44:14;;;;;;;11.57;6.05;;;;;;;-143.48;38.08;118439.88;5035711;28;20037;-74
2023/06/25 07:46:40;;;;;;;10.10;5.25;;;;;;;-143.48;37.96;118439.88;5035741;28;20052;-74
2023/06/25 07:49:05;;;;;;;11.13;5.32;;;;;;;-143.48;37.88;118439.88;5018355;28;20111;-73
2023/06/25 07:51:31;;;;;;;9.10;5.55;;;;;;;-143.48;37.22;118439.88;5035858;28;20029;-74
2023/06/25 07:53:56;;;;;;;13.48;5.07;;;;;;;-143.48;37.26;118439.88;5018149;28;20014;-73
2023/06/25 07:56:22;;;;;;;7.40;5.22;;;;;;;-143.48;37.05;118439.88;5035558;28;20079;-74
2023/06/25 07:58:47;;;;;;;8.95;4.70;;;;;;;-143.48;36.22;118439.88;5035718;28;20484;-74
2023/06/25 08:01:12;;;;;;;8.80;5.30;;;;;;;-143.48;36.07;118439.88;5017903;28;20151;-74
2023/06/25 08:03:38;;;;;;;9.07;4.82;;;;;;;-143.48;34.98;118439.88;5017914;28;20045;-73
2023/06/25 08:06:03;;;;;;;8.32;5.35;;;;;;;-143.48;36.32;118439.88;5035767;28;20032;-73
2023/06/25 08:08:28;;;;;;;7.07;4.80;;;;;;;-143.48;37.15;118439.88;5018060;28;20029;-74
2023/06/25 08:10:54;;;;;;;11.02;5.00;;;;;;;-143.48;35.54;118439.88;5017843;28;20035;-73
2023/06/25 08:13:21;;;;;;;8.70;4.95;;;;;;;-143.48;35.63;118439.88;5017713;28;20088;-74
2023/06/25 08:15:46;;;;;;;11.18;4.70;;;;;;;-143.48;35.22;118439.88;5017260;28;20021;-74
2023/06/25 08:18:11;;;;;;;8.15;4.70;;;;;;;-143.48;34.70;118439.88;5017299;28;20120;-73
2023/06/25 08:20:37;;;;;;;9.85;4.57;;;;;;;-143.48;33.29;118439.88;5017508;28;20120;-73
2023/06/25 08:23:02;;;;;;;7.40;4.88;;;;;;;-143.48;34.85;118439.88;5017685;28;20052;-74
2023/06/25 08:25:34;;;;;;;8.52;4.93;;;;;;;-143.48;32.84;118439.88;5017798;28;20030;-74
2023/06/25 08:27:59;;;;;;;7.00;4.63;;;;;;;-143.48;33.48;118439.88;5017499;28;20029;-74
2023/06/25 08:30:25;;;;;;;7.80;4.32;;;;;;;-143.48;33.11;118439.88;5016841;28;20129;-73
2023/06/25 08:32:50;;;;;;;9.10;4.45;;;;;;;-143.48;32.83;118439.88;5017212;28;20032;-74
2023/06/25 08:35:15;;;;;;;6.60;4.20;;;;;;;-143.48;31.67;118439.88;5034832;28;20113;-73
2023/06/25 08:37:41;;;;;;;7.63;4.47;;;;;;;-143.48;31.52;118439.88;5034653;28;20033;-73
2023/06/25 08:40:11;;;;;;;7.53;4.57;;;;;;;-143.48;32.29;118439.88;5017046;28;20029;-73
2023/06/25 08:42:37;;;;;;;6.68;4.22;;;;;;;-143.48;31.37;118439.88;5017018;28;20082;-73
2023/06/25 08:45:03;;;;;;;8.25;4.28;;;;;;;-143.48;32.07;118439.88;5017673;28;20432;-73
2023/06/25 08:47:36;;;;;;;7.57;4.30;;;;;;;-143.48;32.52;118439.88;5017403;28;20373;-73
2023/06/25 08:50:02;;;;;;;6.95;4.50;;;;;;;-143.48;33.13;118439.88;5034748;28;20022;-73
2023/06/25 08:52:28;;;;;;;7.00;4.35;;;;;;;-143.48;32.15;118439.88;5016760;28;20384;-73
2023/06/25 08:54:53;;;;;;;7.28;4.43;;;;;;;-143.48;32.18;118439.88;5034828;28;20026;-73
2023/06/25 08:57:19;;;;;;;6.22;4.10;;;;;;;-143.48;31.25;118439.88;5034636;28;20021;-73
2023/06/25 08:59:44;;;;;;;8.05;4.07;;;;;;;-143.48;31.80;118439.88;5016206;28;20021;-74
2023/06/25 09:02:10;;;;;;;9.82;4.00;;;;;;;-143.48;32.02;118439.88;5016810;28;20125;-72
2023/06/25 09:04:38;;;;;;;9.63;4.22;;;;;;;-143.48;31.96;118439.88;5016303;28;20025;-72
2023/06/25 09:07:08;;;;;;;5.10;3.67;;;;;;;-143.48;31.96;118439.88;5016596;28;20491;-72
2023/06/25 09:09:33;;;;;;;6.38;3.83;;;;;;;-143.48;30.09;118439.88;5034238;28;20083;-72
2023/06/25 09:11:59;;;;;;;5.60;3.35;;;;;;;-143.48;28.75;118439.88;5016551;28;20029;-81
2023/06/25 09:14:25;;;;;;;6.20;3.40;;;;;;;-143.48;29.48;118439.88;5035042;28;20025;-80
2023/06/25 09:16:51;;;;;;;6.22;2.95;;;;;;;-143.48;28.31;118439.88;5018371;28;20033;-81
2023/06/25 09:19:20;;;;;;;6.78;3.10;;;;;;;-143.48;27.97;118439.88;5034757;28;20021;-81
2023/06/25 09:21:46;;;;;;;8.40;3.40;;;;;;;-143.48;28.25;118439.88;5034682;28;20489;-81
2023/06/25 09:24:21;;;;;;;6.35;3.30;;;;;;;-143.48;28.03;118439.88;5034615;28;20033;-81
2023/06/25 09:26:52;;;;;;;5.93;3.30;;;;;;;-143.48;27.64;118439.88;5017544;28;20029;-81
2023/06/25 09:29:19;;;;;;;5.47;3.05;;;;;;;-143.48;27.54;118439.88;5034445;28;20047;-81
2023/06/25 09:31:46;;;;;;;4.18;3.10;;;;;;;-143.48;27.92;118439.88;5017850;28;20123;-81
2023/06/25 09:34:16;;;;;;;4.07;2.97;;;;;;;-143.48;28.14;118439.88;5034369;28;20013;-81
2023/06/25 09:36:42;;;;;;;4.45;3.13;;;;;;;-143.48;28.59;118439.88;5034965;28;20025;-81
2023/06/25 09:39:09;;;;;;;7.07;3.30;;;;;;;-143.48;28.56;118439.88;5016282;28;20025;-81
2023/06/25 09:41:38;;;;;;;6.05;3.30;;;;;;;-143.48;28.13;118439.88;5034171;28;20105;-81
2023/06/25 09:44:04;;;;;;;5.10;3.17;;;;;;;-143.48;28.45;118439.88;5034224;28;20369;-81
2023/06/25 09:46:35;;;;;;;4.43;2.92;;;;;;;-143.48;28.67;118439.88;5033545;28;20100;-80
2023/06/25 09:49:01;;;;;;;6.18;3.08;;;;;;;-143.48;27.59;118439.88;5000170;28;20025;-81
2023/06/25 09:51:50;;;;;;;5.68;3.60;;;;;;;-143.48;28.53;118439.88;5016390;28;20053;-80
2023/06/25 09:54:21;;;;;;;5.05;3.22;;;;;;;-143.48;28.77;118439.88;5033864;28;20132;-80
2023/06/25 09:56:48;;;;;;;7.72;3.70;;;;;;;-143.48;28.75;118439.88;5033567;28;20021;-80
2023/06/25 09:59:15;;;;;;;4.57;3.08;;;;;;;-143.48;28.46;118439.88;5033865;28;20347;-80
2023/06/25 10:01:40;;;;;;;6.43;3.60;;;;;;;-143.48;28.06;118439.88;5015744;28;20137;-80
2023/06/25 10:04:07;;;;;;;6.25;3.38;;;;;;;-143.48;27.25;118439.88;5015876;28;20053;-80
2023/06/25 10:06:34;;;;;;;5.53;3.20;;;;;;;-143.48;27.59;118439.88;5015884;28;20440;-80
2023/06/25 10:09:02;;;;;;;6.32;3.40;;;;;;;-143.48;28.06;118439.88;5015795;28;20017;-79
2023/06/25 10:11:28;;;;;;;5.75;3.45;;;;;;;-143.48;28.25;118439.88;5033497;28;20066;-80
2023/06/25 10:13:56;;;;;;;5.72;3.72;;;;;;;-143.48;28.70;118439.88;5015869;28;20021;-80
2023/06/25 10:16:21;;;;;;;6.13;3.53;;;;;;;-143.48;27.95;118439.88;5015756;28;20025;-79
2023/06/25 10:18:47;;;;;;;5.60;3.72;;;;;;;-143.48;28.04;118439.88;5033108;28;20037;-80
2023/06/25 10:21:22;;;;;;;4.28;3.30;;;;;;;-143.48;26.92;118439.88;5015462;28;20125;-80
2023/06/25 10:23:56;;;;;;;5.50;3.55;;;;;;;-143.48;27.06;118439.88;5035513;28;20025;-80
2023/06/25 10:26:28;;;;;;;5.03;3.70;;;;;;;-143.48;27.31;118439.88;5019774;28;20512;-80
2023/06/25 10:28:54;;;;;;;9.40;3.53;;;;;;;-143.48;26.92;118439.88;5019823;28;20021;-80
2023/06/25 10:31:19;;;;;;;6.03;3.50;;;;;;;-143.48;27.33;118439.88;5019689;28;20489;-81
2023/06/25 10:33:45;;;;;;;4.57;3.53;;;;;;;-143.48;27.54;118439.88;5037569;28;20063;-81
2023/06/25 10:36:12;;;;;;;5.50;3.45;;;;;;;-143.48;28.04;118439.88;5039967;28;20034;-81
2023/06/25 10:38:38;;;;;;;6.13;3.60;;;;;;;-143.48;28.05;118439.88;5022118;28;20469;-73
2023/06/25 10:41:04;;;;;;;6.07;3.55;;;;;;;-143.48;28.29;118439.88;5020076;28;20435;-74
2023/06/25 10:43:29;;;;;;;5.28;3.42;;;;;;;-143.48;28.09;118439.88;5019394;28;20025;-74
2023/06/25 10:45:56;;;;;;;5.95;3.50;;;;;;;-143.48;28.21;118439.88;5019182;28;20075;-73
2023/06/25 10:48:23;;;;;;;6.85;3.40;;;;;;;-143.48;27.90;118439.88;5036477;28;20035;-73
2023/06/25 10:50:50;;;;;;;7.32;3.80;;;;;;;-143.48;28.45;118439.88;5037007;28;20497;-73
2023/06/25 10:53:17;;;;;;;5.50;3.75;;;;;;;-143.48;28.40;118439.88;5019155;28;20022;-72
2023/06/25 10:55:44;;;;;;;5.10;3.75;;;;;;;-143.48;28.81;118439.88;5019152;28;20060;-73
2023/06/25 10:58:09;;;;;;;4.97;3.40;;;;;;;-143.48;28.45;118439.88;5018690;28;20026;-73
2023/06/25 11:00:35;;;;;;;11.25;3.40;;;;;;;-143.48;29.53;118439.88;5019012;28;20533;-73